createdAt,value
2018-01-13T00:00:19.772Z,47.27
2018-01-13T00:02:48.660Z,47.33
2018-01-13T00:05:16.805Z,51.90
2018-01-13T00:07:44.976Z,52.97
2018-01-13T00:10:13.158Z,50.53
2018-01-13T00:12:42.056Z,53.73
2018-01-13T00:15:10.270Z,47.10
2018-01-13T00:17:39.084Z,48.67
2018-01-13T00:20:07.220Z,51.60
2018-01-13T00:22:39.191Z,51.17
2018-01-13T00:25:08.122Z,48.77
2018-01-13T00:27:36.308Z,46.53
2018-01-13T00:30:04.420Z,43.53
2018-01-13T00:32:32.564Z,52.47
2018-01-13T00:35:00.717Z,51.70
2018-01-13T00:37:28.846Z,56.00
2018-01-13T00:39:57.008Z,53.20
2018-01-13T00:42:25.137Z,57.33
2018-01-13T00:44:54.607Z,56.27
2018-01-13T00:47:24.560Z,53.10
2018-01-13T00:49:52.687Z,58.77
2018-01-13T00:52:20.833Z,46.60
2018-01-13T00:54:49.760Z,49.83
2018-01-13T00:57:17.928Z,52.80
2018-01-13T00:59:46.056Z,53.77
2018-01-13T01:02:14.202Z,56.13
2018-01-13T01:04:44.647Z,51.90
2018-01-13T01:07:12.810Z,51.40
2018-01-13T01:09:41.706Z,61.10
2018-01-13T01:12:13.533Z,54.10
2018-01-13T01:14:42.463Z,52.40
2018-01-13T01:17:11.992Z,52.83
2018-01-13T01:19:41.377Z,50.70
2018-01-13T01:22:10.434Z,54.10
2018-01-13T01:24:39.325Z,51.17
2018-01-13T01:27:08.224Z,53.30
2018-01-13T01:29:37.840Z,56.03
2018-01-13T01:32:06.748Z,49.63
2018-01-13T01:34:35.652Z,47.57
2018-01-13T01:37:04.539Z,56.30
2018-01-13T01:39:32.711Z,57.50
2018-01-13T01:42:00.858Z,55.97
2018-01-13T01:44:29.012Z,47.47
2018-01-13T01:46:57.160Z,47.87
2018-01-13T01:49:25.313Z,49.40
2018-01-13T01:51:53.427Z,47.03
2018-01-13T01:54:22.332Z,47.33
2018-01-13T01:56:50.473Z,43.40
2018-01-13T01:59:19.357Z,48.93
2018-01-13T02:01:48.273Z,49.23
2018-01-13T02:04:17.167Z,55.40
2018-01-13T02:06:46.085Z,46.63
2018-01-13T02:09:14.212Z,47.53
2018-01-13T02:11:42.373Z,46.80
2018-01-13T02:14:10.500Z,48.27
2018-01-13T02:16:38.643Z,44.33
2018-01-13T02:19:06.776Z,48.37
2018-01-13T02:21:34.917Z,50.13
2018-01-13T02:24:03.072Z,48.30
2018-01-13T02:26:31.204Z,49.53
2018-01-13T02:28:59.332Z,51.70
2018-01-13T02:31:27.460Z,46.30
2018-01-13T02:33:56.450Z,47.23
2018-01-13T02:36:26.695Z,51.73
2018-01-13T02:38:54.844Z,46.00
2018-01-13T02:41:23.852Z,47.17
2018-01-13T02:43:52.025Z,49.80
2018-01-13T02:46:20.915Z,48.53
2018-01-13T02:48:49.071Z,46.80
2018-01-13T02:51:19.325Z,42.60
2018-01-13T02:53:47.429Z,43.20
2018-01-13T02:56:15.584Z,45.30
2018-01-13T02:58:43.705Z,47.33
2018-01-13T03:01:11.840Z,43.97
2018-01-13T03:03:39.967Z,46.07
2018-01-13T03:06:08.125Z,46.50
2018-01-13T03:08:36.246Z,42.90
2018-01-13T03:11:04.364Z,47.40
2018-01-13T03:13:33.287Z,38.40
2018-01-13T03:16:01.408Z,44.70
2018-01-13T03:18:29.557Z,46.73
2018-01-13T03:20:57.673Z,42.13
2018-01-13T03:23:25.812Z,47.20
2018-01-13T03:25:54.705Z,45.83
2018-01-13T03:28:22.853Z,43.07
2018-01-13T03:30:50.980Z,43.50
2018-01-13T03:33:19.901Z,41.27
2018-01-13T03:35:48.023Z,39.43
2018-01-13T03:38:16.169Z,45.17
2018-01-13T03:40:44.304Z,45.67
2018-01-13T03:43:12.437Z,44.60
2018-01-13T03:45:40.596Z,48.83
2018-01-13T03:48:08.732Z,38.00
2018-01-13T03:50:36.859Z,40.63
2018-01-13T03:53:05.000Z,45.93
2018-01-13T03:55:33.143Z,43.20
2018-01-13T03:58:01.281Z,42.63
2018-01-13T04:00:29.414Z,40.57
2018-01-13T04:02:57.543Z,45.50
2018-01-13T04:05:25.701Z,40.20
2018-01-13T04:07:54.587Z,42.77
2018-01-13T04:10:22.736Z,45.43
2018-01-13T04:12:50.872Z,44.43
2018-01-13T04:15:19.801Z,50.13
2018-01-13T04:17:47.936Z,45.77
2018-01-13T04:20:16.082Z,42.30
2018-01-13T04:22:44.212Z,39.30
2018-01-13T04:25:12.375Z,48.80
2018-01-13T04:27:40.512Z,44.23
2018-01-13T04:30:09.410Z,49.13
2018-01-13T04:32:38.315Z,42.83
2018-01-13T04:35:07.253Z,49.63
2018-01-13T04:37:35.404Z,44.93
2018-01-13T04:40:04.294Z,53.70
2018-01-13T04:42:32.442Z,46.67
2018-01-13T04:45:01.343Z,45.30
2018-01-13T04:47:29.488Z,43.20
2018-01-13T04:49:58.573Z,39.37
2018-01-13T04:52:26.707Z,46.30
2018-01-13T04:54:54.859Z,39.87
2018-01-13T04:57:23.764Z,39.60
2018-01-13T04:59:52.676Z,43.30
2018-01-13T05:02:21.917Z,40.53
2018-01-13T05:04:50.061Z,42.20
2018-01-13T05:07:18.202Z,44.70
2018-01-13T05:09:47.101Z,47.33
2018-01-13T05:12:15.232Z,43.13
2018-01-13T05:14:43.377Z,47.43
2018-01-13T05:17:11.508Z,46.80
2018-01-13T05:19:40.433Z,44.47
2018-01-13T05:22:08.560Z,47.20
2018-01-13T05:24:36.707Z,42.63
2018-01-13T05:27:04.833Z,45.33
2018-01-13T05:29:33.757Z,49.77
2018-01-13T05:32:01.880Z,46.20
2018-01-13T05:34:30.023Z,48.67
2018-01-13T05:36:58.165Z,49.90
2018-01-13T05:39:26.313Z,50.17
2018-01-13T05:41:54.458Z,49.63
2018-01-13T05:44:22.592Z,46.97
2018-01-13T05:46:50.736Z,45.83
2018-01-13T05:49:18.861Z,44.70
2018-01-13T05:51:47.768Z,41.60
2018-01-13T05:54:16.671Z,38.77
2018-01-13T05:56:45.580Z,43.00
2018-01-13T05:59:13.715Z,42.67
2018-01-13T06:01:41.874Z,47.43
2018-01-13T06:04:10.032Z,43.43
2018-01-13T06:06:38.159Z,43.57
2018-01-13T06:09:06.299Z,45.07
2018-01-13T06:11:35.204Z,41.10
2018-01-13T06:14:04.155Z,42.90
2018-01-13T06:16:32.686Z,42.77
2018-01-13T06:19:00.808Z,40.87
2018-01-13T06:21:29.000Z,41.93
2018-01-13T06:23:57.908Z,38.97
2018-01-13T06:26:26.827Z,35.10
2018-01-13T06:28:54.975Z,39.33
2018-01-13T06:31:23.883Z,37.37
2018-01-13T06:33:52.796Z,37.53
2018-01-13T06:36:21.691Z,38.73
2018-01-13T06:38:50.584Z,38.63
2018-01-13T06:41:18.734Z,37.20
2018-01-13T06:43:46.900Z,43.70
2018-01-13T06:46:15.027Z,37.80
2018-01-13T06:48:43.168Z,39.80
2018-01-13T06:51:12.076Z,34.73
2018-01-13T06:53:40.240Z,39.67
2018-01-13T06:56:08.392Z,39.60
2018-01-13T06:58:37.088Z,40.80
2018-01-13T07:01:05.279Z,33.90
2018-01-13T07:03:33.405Z,39.13
2018-01-13T07:06:01.563Z,35.33
2018-01-13T07:08:30.488Z,35.30
2018-01-13T07:10:58.626Z,39.70
2018-01-13T07:13:26.779Z,38.60
2018-01-13T07:15:54.907Z,36.63
2018-01-13T07:18:23.061Z,42.60
2018-01-13T07:20:51.199Z,39.87
2018-01-13T07:23:20.085Z,40.20
2018-01-13T07:25:48.240Z,41.47
2018-01-13T07:28:16.379Z,50.27
2018-01-13T07:30:45.302Z,37.60
2018-01-13T07:33:13.433Z,35.67
2018-01-13T07:35:41.588Z,39.40
2018-01-13T07:38:09.711Z,36.27
2018-01-13T07:40:37.877Z,38.13
2018-01-13T07:43:06.014Z,39.13
2018-01-13T07:45:34.918Z,43.03
2018-01-13T07:48:03.846Z,41.07
2018-01-13T07:50:31.995Z,36.90
2018-01-13T07:53:00.917Z,40.43
2018-01-13T07:55:29.835Z,37.30
2018-01-13T07:57:58.016Z,37.43
2018-01-13T08:00:26.112Z,36.73
2018-01-13T08:02:54.252Z,37.60
2018-01-13T08:05:22.402Z,42.03
2018-01-13T08:07:50.532Z,38.57
2018-01-13T08:10:19.444Z,39.73
2018-01-13T08:12:47.588Z,45.00
2018-01-13T08:15:16.481Z,41.07
2018-01-13T08:17:44.639Z,42.50
2018-01-13T08:20:12.762Z,39.30
2018-01-13T08:22:40.927Z,41.53
2018-01-13T08:25:09.059Z,42.10
2018-01-13T08:27:37.221Z,36.40
2018-01-13T08:30:05.364Z,43.87
2018-01-13T08:32:34.256Z,38.30
2018-01-13T08:35:03.161Z,45.67
2018-01-13T08:37:32.068Z,49.30
2018-01-13T08:40:00.989Z,41.67
2018-01-13T08:42:29.117Z,52.67
2018-01-13T08:44:57.279Z,46.00
2018-01-13T08:47:25.400Z,41.20
2018-01-13T08:49:53.561Z,42.40
2018-01-13T08:52:21.684Z,47.73
2018-01-13T08:54:50.638Z,37.70
2018-01-13T08:57:18.769Z,40.50
2018-01-13T08:59:46.918Z,42.67
2018-01-13T09:02:18.712Z,49.00
2018-01-13T09:04:46.837Z,42.03
2018-01-13T09:07:14.990Z,40.93
2018-01-13T09:09:43.172Z,47.00
2018-01-13T09:12:11.332Z,36.70
2018-01-13T09:14:39.473Z,46.40
2018-01-13T09:17:08.386Z,46.23
2018-01-13T09:19:36.567Z,52.40
2018-01-13T09:22:05.468Z,41.03
2018-01-13T09:24:35.050Z,40.17
2018-01-13T09:27:03.973Z,39.70
2018-01-13T09:29:32.115Z,39.97
2018-01-13T09:32:00.258Z,39.20
2018-01-13T09:34:29.162Z,39.60
2018-01-13T09:36:58.056Z,37.20
2018-01-13T09:39:26.972Z,42.70
2018-01-13T09:41:56.478Z,43.63
2018-01-13T09:44:24.616Z,45.63
2018-01-13T09:46:52.762Z,36.10
2018-01-13T09:49:21.675Z,41.23
2018-01-13T09:51:49.838Z,43.23
2018-01-13T09:54:17.979Z,49.30
2018-01-13T09:56:46.134Z,38.10
2018-01-13T09:59:14.337Z,44.10
2018-01-13T10:01:42.491Z,39.70
2018-01-13T10:04:11.418Z,44.07
2018-01-13T10:06:39.622Z,42.63
2018-01-13T10:09:08.481Z,49.70
2018-01-13T10:11:36.656Z,44.10
2018-01-13T10:14:04.815Z,40.47
2018-01-13T10:16:32.984Z,37.10
2018-01-13T10:19:01.103Z,39.83
2018-01-13T10:21:29.255Z,37.87
2018-01-13T10:23:57.380Z,37.23
2018-01-13T10:26:25.529Z,37.03
2018-01-13T10:28:53.677Z,37.37
2018-01-13T10:31:22.584Z,39.00
2018-01-13T10:33:51.501Z,40.00
2018-01-13T10:36:19.627Z,40.07
2018-01-13T10:38:47.797Z,42.47
2018-01-13T10:41:15.944Z,43.30
2018-01-13T10:43:44.871Z,39.63
2018-01-13T10:46:13.024Z,37.37
2018-01-13T10:48:41.959Z,40.10
2018-01-13T10:51:10.133Z,33.97
2018-01-13T10:53:39.149Z,45.10
2018-01-13T10:56:07.352Z,41.53
2018-01-13T10:58:35.481Z,39.40
2018-01-13T11:01:03.621Z,38.70
2018-01-13T11:03:31.769Z,36.73
2018-01-13T11:06:01.559Z,39.23
2018-01-13T11:08:29.696Z,47.53
2018-01-13T11:10:57.824Z,40.50
2018-01-13T11:13:26.935Z,38.50
2018-01-13T11:15:55.068Z,34.27
2018-01-13T11:18:24.004Z,38.80
2018-01-13T11:20:52.134Z,37.80
2018-01-13T11:23:20.319Z,40.20
2018-01-13T11:25:48.472Z,39.10
2018-01-13T11:28:16.617Z,40.00
2018-01-13T11:30:45.526Z,37.13
2018-01-13T11:33:14.430Z,34.57
2018-01-13T11:35:43.353Z,37.83
2018-01-13T11:38:11.503Z,36.93
2018-01-13T11:40:39.674Z,39.23
2018-01-13T11:43:07.815Z,37.40
2018-01-13T11:45:35.977Z,37.20
2018-01-13T11:48:04.876Z,40.37
2018-01-13T11:50:33.794Z,35.80
2018-01-13T11:53:02.688Z,38.17
2018-01-13T11:55:31.632Z,36.10
2018-01-13T11:57:59.780Z,41.20
2018-01-13T12:00:28.673Z,43.73
2018-01-13T12:02:58.143Z,38.07
2018-01-13T12:05:26.283Z,42.70
2018-01-13T12:07:55.201Z,36.80
2018-01-13T12:10:23.340Z,40.50
2018-01-13T12:12:51.512Z,43.20
2018-01-13T12:15:19.664Z,42.10
2018-01-13T12:17:49.042Z,42.73
2018-01-13T12:20:17.990Z,48.33
2018-01-13T12:22:46.133Z,42.60
2018-01-13T12:25:14.352Z,50.27
2018-01-13T12:27:42.538Z,45.60
2018-01-13T12:30:10.700Z,46.53
2018-01-13T12:32:38.820Z,41.63
2018-01-13T12:35:06.979Z,43.67
2018-01-13T12:37:35.911Z,43.87
2018-01-13T12:40:04.071Z,42.20
2018-01-13T12:42:32.987Z,43.90
2018-01-13T12:45:01.899Z,42.87
2018-01-13T12:47:30.045Z,47.00
2018-01-13T12:49:58.181Z,39.87
2018-01-13T12:52:26.314Z,42.97
2018-01-13T12:54:54.456Z,43.87
2018-01-13T12:57:22.596Z,42.23
2018-01-13T12:59:51.525Z,46.37
2018-01-13T13:02:20.441Z,45.40
2018-01-13T13:04:48.576Z,47.00
2018-01-13T13:07:16.749Z,40.57
2018-01-13T13:09:44.889Z,37.70
2018-01-13T13:12:13.034Z,47.63
2018-01-13T13:14:41.173Z,43.57
2018-01-13T13:17:09.391Z,42.60
2018-01-13T13:19:37.534Z,51.43
2018-01-13T13:22:06.437Z,45.50
2018-01-13T13:24:34.617Z,40.30
2018-01-13T13:27:03.528Z,44.47
2018-01-13T13:29:31.728Z,44.97
2018-01-13T13:31:59.873Z,42.97
2018-01-13T13:34:28.004Z,43.03
2018-01-13T13:36:56.200Z,36.93
2018-01-13T13:39:24.364Z,38.53
2018-01-13T13:41:52.557Z,42.70
2018-01-13T13:44:20.649Z,43.30
2018-01-13T13:46:48.802Z,43.87
2018-01-13T13:49:17.716Z,44.90
2018-01-13T13:51:45.902Z,49.43
2018-01-13T13:54:14.842Z,41.60
2018-01-13T13:56:42.991Z,44.60
2018-01-13T13:59:11.908Z,48.43
2018-01-13T14:01:40.096Z,43.40
2018-01-13T14:06:35.135Z,41.37
2018-01-13T14:09:03.303Z,38.17
2018-01-13T14:11:31.428Z,41.10
2018-01-13T14:13:59.603Z,42.53
2018-01-13T14:16:27.766Z,40.20
2018-01-13T14:18:56.708Z,39.67
2018-01-13T14:21:24.866Z,39.40
2018-01-13T14:23:53.780Z,37.50
2018-01-13T14:26:21.921Z,46.43
2018-01-13T14:28:50.066Z,41.37
2018-01-13T14:31:18.222Z,40.03
2018-01-13T14:33:47.158Z,35.73
2018-01-13T14:36:15.313Z,38.60
2018-01-13T14:38:43.449Z,45.10
2018-01-13T14:41:11.640Z,39.50
2018-01-13T14:43:39.780Z,40.93
2018-01-13T14:46:07.946Z,38.20
2018-01-13T14:48:36.877Z,40.60
2018-01-13T14:51:05.799Z,40.10
2018-01-13T14:53:33.932Z,40.70
2018-01-13T14:56:02.854Z,36.67
2018-01-13T14:58:31.786Z,42.40
2018-01-13T15:00:59.917Z,43.77
2018-01-13T15:03:28.092Z,37.07
2018-01-13T15:05:56.239Z,40.70
2018-01-13T15:08:25.168Z,42.57
2018-01-13T15:10:53.282Z,42.77
2018-01-13T15:13:21.453Z,42.63
2018-01-13T15:15:50.356Z,43.50
2018-01-13T15:18:18.549Z,36.60
2018-01-13T15:20:47.460Z,38.10
2018-01-13T15:23:15.628Z,44.73
2018-01-13T15:25:43.784Z,43.93
2018-01-13T15:28:11.940Z,41.40
2018-01-13T15:30:40.850Z,46.73
2018-01-13T15:33:09.749Z,44.43
2018-01-13T15:35:39.388Z,46.87
2018-01-13T15:38:07.557Z,39.37
2018-01-13T15:40:37.281Z,46.13
2018-01-13T15:43:06.177Z,42.37
2018-01-13T15:45:35.121Z,38.43
2018-01-13T15:48:03.303Z,40.77
2018-01-13T15:50:31.433Z,42.97
2018-01-13T15:52:59.560Z,44.80
2018-01-13T15:55:29.153Z,44.17
2018-01-13T15:57:59.599Z,42.30
2018-01-13T16:00:27.713Z,44.83
2018-01-13T16:02:55.881Z,50.90
2018-01-13T16:05:24.822Z,41.40
2018-01-13T16:07:53.577Z,46.33
2018-01-13T16:10:22.513Z,42.37
2018-01-13T16:12:50.655Z,41.10
2018-01-13T16:15:18.776Z,40.97
2018-01-13T16:17:46.926Z,46.40
2018-01-13T16:20:15.062Z,48.00
2018-01-13T16:22:43.195Z,38.20
2018-01-13T16:25:11.353Z,38.90
2018-01-13T16:27:40.269Z,43.83
2018-01-13T16:30:08.409Z,43.30
2018-01-13T16:32:36.566Z,41.93
2018-01-13T16:35:04.694Z,39.33
2018-01-13T16:37:32.878Z,41.83
2018-01-13T16:40:01.059Z,48.10
2018-01-13T16:42:29.208Z,44.30
2018-01-13T16:44:57.634Z,47.27
2018-01-13T16:47:26.555Z,48.90
2018-01-13T16:49:54.684Z,50.10
2018-01-13T16:52:22.831Z,37.40
2018-01-13T16:54:50.967Z,39.63
2018-01-13T16:57:19.910Z,41.20
2018-01-13T16:59:48.077Z,41.97
2018-01-13T17:02:16.224Z,43.10
2018-01-13T17:04:44.373Z,40.33
2018-01-13T17:07:12.549Z,41.63
2018-01-13T17:09:40.695Z,41.70
2018-01-13T17:12:09.608Z,43.23
2018-01-13T17:14:38.529Z,44.50
2018-01-13T17:17:06.702Z,42.80
2018-01-13T17:19:35.626Z,43.97
2018-01-13T17:22:03.759Z,44.00
2018-01-13T17:24:31.916Z,39.90
2018-01-13T17:27:00.042Z,51.10
2018-01-13T17:29:28.174Z,42.50
2018-01-13T17:31:56.360Z,42.53
2018-01-13T17:34:25.276Z,40.40
2018-01-13T17:36:53.411Z,44.73
2018-01-13T17:39:21.564Z,39.73
2018-01-13T17:41:50.490Z,41.83
2018-01-13T17:44:20.169Z,41.37
2018-01-13T17:46:48.344Z,42.60
2018-01-13T17:49:16.471Z,38.33
2018-01-13T17:51:44.625Z,35.20
2018-01-13T17:54:12.782Z,45.23
2018-01-13T17:56:40.953Z,37.33
2018-01-13T17:59:09.092Z,39.70
2018-01-13T18:01:37.561Z,41.93
2018-01-13T18:04:06.233Z,41.43
2018-01-13T18:06:36.137Z,40.50
2018-01-13T18:09:04.289Z,36.33
2018-01-13T18:11:32.420Z,38.83
2018-01-13T18:14:00.614Z,43.17
2018-01-13T18:16:28.768Z,41.90
2018-01-13T18:18:56.916Z,37.23
2018-01-13T18:21:25.533Z,39.17
2018-01-13T18:23:54.008Z,41.37
2018-01-13T18:26:22.893Z,35.93
2018-01-13T18:28:51.061Z,37.80
2018-01-13T18:31:19.172Z,39.57
2018-01-13T18:33:48.127Z,36.80
2018-01-13T18:36:16.261Z,39.40
2018-01-13T18:38:45.208Z,36.73
2018-01-13T18:41:14.139Z,43.90
2018-01-13T18:43:42.281Z,38.23
2018-01-13T18:46:10.410Z,41.07
2018-01-13T18:48:38.601Z,36.33
2018-01-13T18:51:06.750Z,42.47
2018-01-13T18:53:34.877Z,37.87
2018-01-13T18:56:03.022Z,34.93
2018-01-13T18:58:31.185Z,40.77
2018-01-13T19:01:00.113Z,38.90
2018-01-13T19:03:28.260Z,51.60
2018-01-13T19:05:57.181Z,41.10
2018-01-13T19:08:26.888Z,46.10
2018-01-13T19:10:57.012Z,47.60
2018-01-13T19:13:25.171Z,43.67
2018-01-13T19:15:53.341Z,43.13
2018-01-13T19:18:21.485Z,33.77
2018-01-13T19:20:51.134Z,35.73
2018-01-13T19:23:20.236Z,37.70
2018-01-13T19:25:49.149Z,34.20
2018-01-13T19:28:17.491Z,36.70
2018-01-13T19:30:45.630Z,34.53
2018-01-13T19:33:13.779Z,35.23
2018-01-13T19:35:42.678Z,36.33
2018-01-13T19:38:10.845Z,36.27
2018-01-13T19:40:38.994Z,34.17
2018-01-13T19:43:07.148Z,35.00
2018-01-13T19:45:36.286Z,37.93
2018-01-13T19:48:04.398Z,38.47
2018-01-13T19:50:32.576Z,37.90
2018-01-13T19:53:01.478Z,37.30
2018-01-13T19:55:29.632Z,39.30
2018-01-13T19:57:57.772Z,40.50
2018-01-13T20:00:25.957Z,40.37
2018-01-13T20:02:54.095Z,38.10
2018-01-13T20:05:22.249Z,34.67
2018-01-13T20:07:51.169Z,44.83
2018-01-13T20:10:20.109Z,43.60
2018-01-13T20:12:48.266Z,35.20
2018-01-13T20:15:18.122Z,37.83
2018-01-13T20:17:46.298Z,32.90
2018-01-13T20:20:14.463Z,45.10
2018-01-13T20:22:42.591Z,34.93
2018-01-13T20:25:11.495Z,36.10
2018-01-13T20:27:41.186Z,38.87
2018-01-13T20:30:10.125Z,38.87
2018-01-13T20:32:38.281Z,39.60
2018-01-13T20:35:07.221Z,38.97
2018-01-13T20:37:35.361Z,37.03
2018-01-13T20:40:03.529Z,38.23
2018-01-13T20:42:33.201Z,39.67
2018-01-13T20:45:01.324Z,38.20
2018-01-13T20:47:30.255Z,39.77
2018-01-13T20:49:59.180Z,42.37
2018-01-13T20:52:27.354Z,45.40
2018-01-13T20:54:55.477Z,41.47
2018-01-13T20:57:24.694Z,36.90
2018-01-13T20:59:53.567Z,48.50
2018-01-13T21:02:22.998Z,41.20
2018-01-13T21:04:51.168Z,47.77
2018-01-13T21:07:19.311Z,44.00
2018-01-13T21:09:48.231Z,44.47
2018-01-13T21:12:16.365Z,43.43
2018-01-13T21:14:45.366Z,40.33
2018-01-13T21:17:13.502Z,37.97
2018-01-13T21:19:42.410Z,42.57
2018-01-13T21:22:10.554Z,37.43
2018-01-13T21:24:38.693Z,43.70
2018-01-13T21:27:06.833Z,45.07
2018-01-13T21:29:34.977Z,40.10
2018-01-13T21:32:03.104Z,43.87
2018-01-13T21:34:31.253Z,41.40
2018-01-13T21:37:00.164Z,40.60
2018-01-13T21:39:28.335Z,42.33
2018-01-13T21:41:56.494Z,44.00
2018-01-13T21:44:25.407Z,39.93
2018-01-13T21:46:55.139Z,46.40
2018-01-13T21:49:23.294Z,45.03
2018-01-13T21:51:51.430Z,53.13
2018-01-13T21:54:19.581Z,44.67
2018-01-13T21:56:48.501Z,44.13
2018-01-13T21:59:16.632Z,47.50
2018-01-13T22:01:44.799Z,39.67
2018-01-13T22:04:12.946Z,43.00
2018-01-13T22:06:41.865Z,47.30
2018-01-13T22:09:09.992Z,40.40
2018-01-13T22:11:38.144Z,39.10
2018-01-13T22:14:06.288Z,44.80
2018-01-13T22:16:34.420Z,44.47
2018-01-13T22:19:02.558Z,40.60
2018-01-13T22:21:31.482Z,43.00
2018-01-13T22:24:00.390Z,40.90
2018-01-13T22:26:29.332Z,39.27
2018-01-13T22:28:57.487Z,40.40
2018-01-13T22:31:25.655Z,40.10
2018-01-13T22:33:53.813Z,46.00
2018-01-13T22:36:21.960Z,44.93
2018-01-13T22:38:50.104Z,38.47
2018-01-13T22:41:18.272Z,43.20
2018-01-13T22:43:46.421Z,38.97
2018-01-13T22:46:14.627Z,37.70
2018-01-13T22:48:42.770Z,42.13
2018-01-13T22:51:11.712Z,38.37
2018-01-13T22:53:39.848Z,40.90
2018-01-13T22:56:08.780Z,39.40
2018-01-13T22:58:36.893Z,37.90
2018-01-13T23:01:05.052Z,42.10
2018-01-13T23:03:33.212Z,38.30
2018-01-13T23:06:02.144Z,41.10
2018-01-13T23:08:30.290Z,39.67
2018-01-13T23:10:59.933Z,41.80
2018-01-13T23:13:28.848Z,38.63
2018-01-13T23:15:57.013Z,39.90
2018-01-13T23:18:25.930Z,36.53
2018-01-13T23:20:54.057Z,37.47
2018-01-13T23:23:22.236Z,37.50
2018-01-13T23:25:50.388Z,34.97
2018-01-13T23:28:18.529Z,40.10
2018-01-13T23:30:46.676Z,34.50
2018-01-13T23:33:14.819Z,38.53
2018-01-13T23:35:42.955Z,32.60
2018-01-13T23:38:11.101Z,35.33
2018-01-13T23:40:40.000Z,31.53
2018-01-13T23:43:08.152Z,33.50
2018-01-13T23:45:36.849Z,31.43
2018-01-13T23:48:04.987Z,29.50
2018-01-13T23:50:33.875Z,23.70
2018-01-13T23:53:03.010Z,31.10
2018-01-13T23:55:31.898Z,30.30
2018-01-13T23:58:00.850Z,31.73
